Time;durP1;ratioP1;P1;durP2;ratioP2;P2;SDS_P1;SDS_P2;PMS_P1;PMS_P2;Temp;Humidity;BMP_temperature;BMP_pressure;BME280_temperature;BME280_humidity;BME280_pressure;Samples;Min_cycle;Max_cycle;Signal;HPM_P1;HPM_P2
2022/05/25 00:00:55;;;;;;;15.45;10.02;;;10.40;99.90;;;;;;5037683;28;20044;-83
2022/05/25 00:03:20;;;;;;;16.40;9.93;;;10.40;99.90;;;;;;5037829;28;20045;-82
2022/05/25 00:05:46;;;;;;;15.75;9.90;;;10.50;99.90;;;;;;5037643;28;20055;-83
2022/05/25 00:08:13;;;;;;;18.85;10.20;;;10.50;99.90;;;;;;5037600;28;20052;-83
2022/05/25 00:10:39;;;;;;;17.55;10.65;;;10.50;99.90;;;;;;5037406;28;20440;-83
2022/05/25 00:13:05;;;;;;;19.63;10.63;;;10.50;99.90;;;;;;5037395;28;20496;-83
2022/05/25 00:15:31;;;;;;;18.67;10.00;;;10.40;99.90;;;;;;5037379;28;20068;-83
2022/05/25 00:17:56;;;;;;;23.15;11.10;;;10.50;99.90;;;;;;5037301;28;20052;-84
2022/05/25 00:20:24;;;;;;;18.30;11.18;;;10.40;99.90;;;;;;5037451;28;20091;-83
2022/05/25 00:22:52;;;;;;;18.88;11.00;;;10.40;99.90;;;;;;5037094;28;20401;-83
2022/05/25 00:25:29;;;;;;;21.60;11.70;;;10.40;99.90;;;;;;5037298;28;20064;-84
2022/05/25 00:27:55;;;;;;;19.30;12.10;;;10.50;99.90;;;;;;5037284;28;20482;-83
2022/05/25 00:30:22;;;;;;;18.75;12.13;;;10.50;99.90;;;;;;5037138;28;20119;-84
2022/05/25 00:32:47;;;;;;;21.10;12.27;;;10.50;99.90;;;;;;5037337;28;20043;-83
2022/05/25 00:35:17;;;;;;;24.10;11.63;;;10.50;99.90;;;;;;5037222;28;20048;-83
2022/05/25 00:37:43;;;;;;;19.05;12.18;;;10.50;99.90;;;;;;5036825;28;20124;-84
2022/05/25 00:40:13;;;;;;;22.02;11.68;;;10.50;99.90;;;;;;5037227;28;20061;-84
2022/05/25 00:42:39;;;;;;;22.45;12.00;;;10.50;99.90;;;;;;5037222;28;20052;-83
2022/05/25 00:45:06;;;;;;;17.42;11.27;;;10.50;99.90;;;;;;5036862;28;20041;-83
2022/05/25 00:47:34;;;;;;;19.90;11.52;;;10.50;99.90;;;;;;5036881;28;20131;-84
2022/05/25 00:50:00;;;;;;;27.35;11.40;;;10.40;99.90;;;;;;5036861;28;20389;-84
2022/05/25 00:52:26;;;;;;;22.88;11.95;;;10.40;99.90;;;;;;5036660;28;20482;-84
2022/05/25 00:55:15;;;;;;;26.65;13.35;;;10.40;99.90;;;;;;5036727;28;20047;-83
2022/05/25 00:57:44;;;;;;;21.13;12.13;;;10.40;99.90;;;;;;5036678;28;20045;-84
2022/05/25 01:00:11;;;;;;;22.00;13.23;;;10.40;99.90;;;;;;5036486;28;20055;-84
2022/05/25 01:02:50;;;;;;;25.70;14.45;;;10.40;99.90;;;;;;5036494;28;20420;-84
2022/05/25 01:05:21;;;;;;;23.95;13.93;;;10.30;99.90;;;;;;5054517;28;20132;-84
2022/05/25 01:08:05;;;;;;;25.88;14.00;;;10.40;99.90;;;;;;5036562;28;20499;-83
2022/05/25 01:10:46;;;;;;;22.33;13.45;;;10.40;99.90;;;;;;5036312;28;20091;-83
2022/05/25 01:13:24;;;;;;;25.35;13.20;;;10.30;99.90;;;;;;5036554;28;20057;-83
2022/05/25 01:16:18;;;;;;;23.98;12.63;;;10.40;99.90;;;;;;5035989;28;20396;-83
2022/05/25 01:18:52;;;;;;;23.95;14.40;;;10.30;99.90;;;;;;5054171;28;20123;-83
2022/05/25 01:21:55;;;;;;;22.45;13.88;;;10.40;99.90;;;;;;5036371;28;20087;-83
2022/05/25 01:24:45;;;;;;;26.15;13.80;;;10.40;99.90;;;;;;4956982;28;20105;-83
2022/05/25 01:27:27;;;;;;;20.95;13.32;;;10.30;99.90;;;;;;5032795;28;20049;-84
2022/05/25 01:29:55;;;;;;;30.40;15.52;;;10.30;99.90;;;;;;5035994;28;20116;-83
2022/05/25 01:32:26;;;;;;;22.65;13.32;;;10.30;99.90;;;;;;5036039;28;20052;-84
2022/05/25 01:35:08;;;;;;;24.45;13.85;;;10.30;99.90;;;;;;5035959;28;20499;-84
2022/05/25 01:37:38;;;;;;;27.23;14.27;;;10.30;99.90;;;;;;5036025;28;20033;-83
2022/05/25 01:40:22;;;;;;;28.73;14.10;;;10.30;99.90;;;;;;5053816;28;20127;-84
2022/05/25 01:42:59;;;;;;;28.95;14.73;;;10.30;99.90;;;;;;5035918;28;20084;-84
2022/05/25 01:45:32;;;;;;;27.52;14.93;;;10.30;99.90;;;;;;5035939;28;20049;-84
2022/05/25 01:48:03;;;;;;;28.58;15.63;;;10.30;99.90;;;;;;5035896;28;20052;-84
2022/05/25 01:50:42;;;;;;;31.73;16.10;;;10.30;99.90;;;;;;5035293;28;20056;-84
2022/05/25 01:53:11;;;;;;;33.00;16.35;;;10.30;99.90;;;;;;5053514;28;20489;-83
2022/05/25 01:55:40;;;;;;;31.83;16.20;;;10.30;99.90;;;;;;5035714;28;20048;-84
2022/05/25 01:58:10;;;;;;;30.95;16.30;;;10.30;99.90;;;;;;5035690;28;20125;-84
2022/05/25 02:00:39;;;;;;;26.85;16.80;;;10.30;99.90;;;;;;5035479;28;20485;-84
2022/05/25 02:06:20;;;;;;;31.52;16.27;;;10.20;99.90;;;;;;5035493;28;20080;-84
2022/05/25 02:09:15;;;;;;;30.60;16.90;;;10.20;99.90;;;;;;5035596;28;20056;-85
2022/05/25 02:11:44;;;;;;;32.00;17.63;;;10.20;99.90;;;;;;5053469;28;20068;-85
2022/05/25 02:14:38;;;;;;;31.50;18.33;;;10.10;99.90;;;;;;5053373;28;20052;-84
2022/05/25 02:17:22;;;;;;;32.22;16.65;;;10.10;99.90;;;;;;5035363;28;20103;-85
2022/05/25 02:20:10;;;;;;;34.85;17.55;;;10.10;99.90;;;;;;5035456;28;20064;-84
2022/05/25 02:22:50;;;;;;;37.53;19.05;;;10.00;99.90;;;;;;5035660;28;20067;-84
2022/05/25 02:25:30;;;;;;;29.23;17.20;;;10.00;99.90;;;;;;5035594;28;20052;-85
2022/05/25 02:28:19;;;;;;;33.13;18.30;;;10.00;99.90;;;;;;5035581;28;20084;-84
2022/05/25 02:30:52;;;;;;;33.08;17.80;;;9.90;99.90;;;;;;5035468;28;20044;-85
2022/05/25 02:33:39;;;;;;;34.55;18.10;;;9.90;99.90;;;;;;5053182;28;20389;-84
2022/05/25 02:36:06;;;;;;;30.92;18.58;;;9.90;99.90;;;;;;5035257;28;20057;-85
2022/05/25 02:38:37;;;;;;;31.58;17.67;;;9.80;99.90;;;;;;5035483;28;20045;-85
2022/05/25 02:41:07;;;;;;;33.50;18.70;;;9.80;99.90;;;;;;5053219;28;20077;-84
2022/05/25 02:43:36;;;;;;;31.77;19.08;;;9.70;99.90;;;;;;5053070;28;20072;-84
2022/05/25 02:46:02;;;;;;;37.78;19.92;;;9.70;99.90;;;;;;5034954;28;20546;-85
2022/05/25 02:48:28;;;;;;;37.75;19.00;;;9.70;99.90;;;;;;5035137;28;20053;-85
2022/05/25 02:50:54;;;;;;;36.60;19.60;;;9.70;99.90;;;;;;5035195;28;20041;-85
2022/05/25 02:53:20;;;;;;;35.25;19.33;;;9.80;99.90;;;;;;5035141;28;20041;-85
2022/05/25 02:55:46;;;;;;;36.78;19.50;;;9.80;99.90;;;;;;5053090;28;20041;-85
2022/05/25 02:58:11;;;;;;;32.35;18.48;;;9.80;99.90;;;;;;5035240;28;20083;-85
2022/05/25 03:00:37;;;;;;;40.70;20.02;;;9.70;99.90;;;;;;5035382;28;20045;-85
2022/05/25 03:03:03;;;;;;;40.60;20.88;;;9.70;99.90;;;;;;5036430;28;20477;-85
2022/05/25 03:05:28;;;;;;;37.70;20.65;;;9.70;99.90;;;;;;5056619;28;20411;-85
2022/05/25 03:07:54;;;;;;;41.03;20.45;;;9.70;99.90;;;;;;5038620;28;20103;-85
2022/05/25 03:10:20;;;;;;;41.05;21.58;;;9.70;99.90;;;;;;5038497;28;20049;-86
2022/05/25 03:12:45;;;;;;;39.42;20.65;;;9.80;99.90;;;;;;5056372;28;20040;-86
2022/05/25 03:15:11;;;;;;;41.40;22.10;;;9.80;99.90;;;;;;5038179;28;20049;-86
2022/05/25 03:17:37;;;;;;;43.45;21.67;;;9.90;99.90;;;;;;5037445;28;20057;-86
2022/05/25 03:20:03;;;;;;;41.72;21.73;;;9.90;99.90;;;;;;5037504;28;20053;-84
2022/05/25 03:22:28;;;;;;;46.00;22.90;;;9.90;99.90;;;;;;5038134;28;20049;-84
2022/05/25 03:24:54;;;;;;;37.95;20.27;;;9.90;99.90;;;;;;5038044;28;20110;-84
2022/05/25 03:27:20;;;;;;;40.03;21.48;;;9.90;99.90;;;;;;5038193;28;20500;-84
2022/05/25 03:29:45;;;;;;;37.95;20.90;;;9.90;99.90;;;;;;5056131;28;20065;-84
2022/05/25 03:32:12;;;;;;;40.70;21.88;;;9.90;99.90;;;;;;5055854;28;20055;-84
2022/05/25 03:34:37;;;;;;;45.42;22.55;;;9.90;99.90;;;;;;5038213;28;20542;-84
2022/05/25 03:37:03;;;;;;;43.75;22.45;;;9.90;99.90;;;;;;5038165;28;20040;-85
2022/05/25 03:39:29;;;;;;;40.72;21.77;;;9.90;99.90;;;;;;5037891;28;20076;-85
2022/05/25 03:42:02;;;;;;;40.38;21.45;;;9.90;99.90;;;;;;5038082;28;20095;-85
2022/05/25 03:44:28;;;;;;;40.00;21.17;;;9.90;99.90;;;;;;5038087;28;20040;-85
2022/05/25 03:46:54;;;;;;;39.47;21.50;;;10.00;99.90;;;;;;5037693;28;20045;-85
2022/05/25 03:49:20;;;;;;;38.95;20.95;;;10.00;99.90;;;;;;5055809;28;20469;-85
2022/05/25 03:51:46;;;;;;;42.88;21.48;;;10.00;99.90;;;;;;5037938;28;20106;-85
2022/05/25 03:54:12;;;;;;;42.67;22.35;;;10.10;99.90;;;;;;5037914;28;20481;-84
2022/05/25 03:56:38;;;;;;;52.30;21.85;;;10.10;99.90;;;;;;5037497;28;20056;-85
2022/05/25 03:59:04;;;;;;;40.78;19.92;;;10.10;99.90;;;;;;5037689;28;20060;-85
2022/05/25 04:01:32;;;;;;;42.63;20.42;;;10.10;99.90;;;;;;5037603;28;20084;-85
2022/05/25 04:03:58;;;;;;;40.45;20.77;;;10.10;99.90;;;;;;5037617;28;20045;-86
2022/05/25 04:06:25;;;;;;;40.72;19.95;;;10.20;99.90;;;;;;5037303;28;20053;-85
2022/05/25 04:08:50;;;;;;;37.70;18.85;;;10.20;99.90;;;;;;5055442;28;20045;-85
2022/05/25 04:11:16;;;;;;;36.28;19.50;;;10.30;99.90;;;;;;5037509;28;20098;-85
2022/05/25 04:13:42;;;;;;;38.20;19.42;;;10.30;99.90;;;;;;5036889;28;20124;-84
2022/05/25 04:16:07;;;;;;;41.92;19.63;;;10.40;99.90;;;;;;5055018;28;20091;-84
2022/05/25 04:18:33;;;;;;;36.35;18.65;;;10.50;99.90;;;;;;5037304;28;20049;-83
2022/05/25 04:20:59;;;;;;;38.55;19.92;;;10.50;99.90;;;;;;5037403;28;20051;-84
2022/05/25 04:23:26;;;;;;;40.25;19.10;;;10.60;99.90;;;;;;5037334;28;20378;-84
2022/05/25 04:25:53;;;;;;;37.20;18.13;;;10.60;99.90;;;;;;5037064;28;20052;-85
2022/05/25 04:28:20;;;;;;;39.60;18.95;;;10.70;99.90;;;;;;5037229;28;20067;-84
2022/05/25 04:30:46;;;;;;;32.45;17.80;;;10.80;99.90;;;;;;5036889;28;20052;-84
2022/05/25 04:33:12;;;;;;;33.05;17.65;;;10.90;99.90;;;;;;5037005;28;20535;-85
2022/05/25 04:35:38;;;;;;;34.28;18.08;;;11.00;99.90;;;;;;5054716;28;20087;-84
2022/05/25 04:38:06;;;;;;;31.90;17.20;;;11.00;99.90;;;;;;5036698;28;20045;-84
2022/05/25 04:40:34;;;;;;;41.22;19.40;;;11.10;99.90;;;;;;5054467;28;20448;-88
2022/05/25 04:43:07;;;;;;;28.50;15.38;;;11.20;99.90;;;;;;5036591;28;20531;-84
2022/05/25 04:45:33;;;;;;;35.00;16.30;;;11.30;99.90;;;;;;5054660;28;20049;-84
2022/05/25 04:48:01;;;;;;;32.95;15.50;;;11.40;99.90;;;;;;5054593;28;20043;-85
2022/05/25 04:50:31;;;;;;;37.50;15.75;;;11.40;99.90;;;;;;5036946;28;20045;-85
2022/05/25 04:52:59;;;;;;;28.38;16.33;;;11.50;99.90;;;;;;5036791;28;20045;-85
2022/05/25 04:58:27;;;;;;;25.80;14.98;;;11.50;99.90;;;;;;5036753;28;20132;-85
2022/05/25 05:00:53;;;;;;;30.77;15.95;;;11.50;99.90;;;;;;5054457;28;20120;-84
2022/05/25 05:03:20;;;;;;;33.08;14.13;;;11.70;99.90;;;;;;5054377;28;20037;-84
2022/05/25 05:05:47;;;;;;;33.95;15.63;;;11.80;99.90;;;;;;5036049;28;20500;-85
2022/05/25 05:08:13;;;;;;;31.13;14.40;;;11.90;99.90;;;;;;5054340;28;20118;-84
2022/05/25 05:10:39;;;;;;;28.17;13.85;;;12.00;99.90;;;;;;5036387;28;20125;-84
2022/05/25 05:13:04;;;;;;;26.98;13.13;;;12.10;99.90;;;;;;5036189;28;20041;-84
2022/05/25 05:15:35;;;;;;;27.10;14.52;;;12.20;99.90;;;;;;5036361;28;20053;-84
2022/05/25 05:18:01;;;;;;;31.67;12.38;;;12.30;99.90;;;;;;5053825;28;20582;-87
2022/05/25 05:20:27;;;;;;;27.27;13.32;;;12.40;99.90;;;;;;5035914;28;20614;-86
2022/05/25 05:22:53;;;;;;;28.63;12.90;;;12.60;99.90;;;;;;5053750;28;20502;-84
2022/05/25 05:25:19;;;;;;;30.80;12.13;;;12.70;99.90;;;;;;5035251;28;20493;-85
2022/05/25 05:27:45;;;;;;;23.63;11.70;;;12.80;99.90;;;;;;5036181;28;20090;-85
2022/05/25 05:30:15;;;;;;;24.42;11.77;;;12.90;99.90;;;;;;5036073;28;20045;-84
2022/05/25 05:32:42;;;;;;;20.70;11.75;;;13.00;99.90;;;;;;5036052;28;20405;-84
2022/05/25 05:35:09;;;;;;;26.65;12.43;;;13.10;99.90;;;;;;5035952;28;20503;-82
2022/05/25 05:37:47;;;;;;;27.17;11.10;;;13.30;99.90;;;;;;5035737;28;20373;-83
2022/05/25 05:40:16;;;;;;;25.30;11.60;;;13.30;99.90;;;;;;5053798;28;20048;-84
2022/05/25 05:42:44;;;;;;;24.75;12.45;;;13.50;99.90;;;;;;5036059;28;20124;-84
2022/05/25 05:45:24;;;;;;;23.70;11.63;;;13.60;99.90;;;;;;5053436;28;20532;-85
2022/05/25 05:47:55;;;;;;;25.58;11.30;;;13.70;99.90;;;;;;5053797;28;20128;-84
2022/05/25 05:50:23;;;;;;;27.60;11.73;;;13.80;99.90;;;;;;5053684;28;20052;-85
2022/05/25 05:52:50;;;;;;;23.35;10.50;;;13.90;99.90;;;;;;5053606;28;20094;-81
2022/05/25 05:55:17;;;;;;;26.00;10.98;;;14.00;99.90;;;;;;5035907;28;20067;-83
2022/05/25 05:57:43;;;;;;;18.63;10.98;;;14.00;99.90;;;;;;5035788;28;20044;-85
2022/05/25 06:00:10;;;;;;;24.90;10.88;;;14.00;99.90;;;;;;5053605;28;20106;-80
2022/05/25 06:02:36;;;;;;;26.77;10.27;;;14.00;99.90;;;;;;5035729;28;20041;-83
2022/05/25 06:05:01;;;;;;;23.67;10.38;;;14.20;99.90;;;;;;5035455;28;20045;-84
2022/05/25 06:07:27;;;;;;;18.67;9.25;;;14.40;99.90;;;;;;5035492;28;20053;-83
2022/05/25 06:09:54;;;;;;;20.38;8.77;;;14.40;99.90;;;;;;5035344;28;20044;-83
2022/05/25 06:12:20;;;;;;;22.98;9.73;;;14.50;99.90;;;;;;5035342;28;20056;-82
2022/05/25 06:14:45;;;;;;;24.17;9.75;;;14.60;99.90;;;;;;5034613;28;20045;-82
2022/05/25 06:19:55;;;;;;;20.08;9.38;;;14.70;99.90;;;;;;5028829;28;20049;-82
2022/05/25 06:22:22;;;;;;;23.35;10.05;;;14.80;99.90;;;;;;5034485;28;20049;-82
2022/05/25 06:24:52;;;;;;;22.90;9.57;;;14.90;99.90;;;;;;5034104;28;20053;-81
2022/05/25 06:27:19;;;;;;;21.50;9.70;;;15.10;99.90;;;;;;5015705;28;20057;-81
2022/05/25 06:29:49;;;;;;;20.27;8.63;;;15.10;99.90;;;;;;5015558;28;20584;-83
2022/05/25 06:32:18;;;;;;;21.73;10.00;;;15.20;99.90;;;;;;5015401;28;20064;-82
2022/05/25 06:34:47;;;;;;;23.98;10.02;;;15.20;99.90;;;;;;5015428;28;20053;-83
2022/05/25 06:37:19;;;;;;;22.45;8.93;;;15.30;99.90;;;;;;5017106;28;20037;-82
2022/05/25 06:39:45;;;;;;;21.55;8.25;;;15.30;99.90;;;;;;5019303;28;20037;-82
2022/05/25 06:42:11;;;;;;;26.48;8.35;;;15.30;99.90;;;;;;5019143;28;20103;-83
2022/05/25 06:44:36;;;;;;;22.13;8.82;;;15.50;99.90;;;;;;5019342;28;20052;-82
2022/05/25 06:47:03;;;;;;;18.80;8.00;;;15.40;99.90;;;;;;5036850;28;20405;-83
2022/05/25 06:49:31;;;;;;;22.08;9.05;;;15.50;99.90;;;;;;5018308;28;20053;-83
2022/05/25 06:51:57;;;;;;;17.90;8.75;;;15.60;99.90;;;;;;5025652;28;20128;-82
2022/05/25 06:54:23;;;;;;;25.83;8.68;;;15.70;99.90;;;;;;5038987;28;20128;-83
2022/05/25 06:56:49;;;;;;;16.77;8.93;;;15.90;99.90;;;;;;5038644;28;20051;-84
2022/05/25 06:59:15;;;;;;;20.77;8.82;;;16.10;99.90;;;;;;5038909;28;20049;-83
2022/05/25 07:01:41;;;;;;;19.60;7.57;;;16.20;99.90;;;;;;5056678;28;20053;-84
2022/05/25 07:04:08;;;;;;;13.93;7.40;;;16.30;99.90;;;;;;5037834;28;20045;-83
2022/05/25 07:06:38;;;;;;;15.40;7.18;;;16.40;99.90;;;;;;5037984;28;20127;-83
2022/05/25 07:09:05;;;;;;;16.00;5.75;;;16.30;99.90;;;;;;5038495;28;20507;-83
2022/05/25 07:11:31;;;;;;;15.07;7.53;;;16.30;99.90;;;;;;5038501;28;20159;-83
2022/05/25 07:13:59;;;;;;;22.85;7.70;;;16.30;99.90;;;;;;5038219;28;20053;-85
2022/05/25 07:16:26;;;;;;;14.55;7.40;;;16.50;99.90;;;;;;5038196;28;20114;-83
2022/05/25 07:18:52;;;;;;;23.23;8.85;;;16.70;99.90;;;;;;5038088;28;20452;-82
2022/05/25 07:21:28;;;;;;;16.38;8.02;;;16.80;99.90;;;;;;5037937;28;20110;-84
2022/05/25 07:23:55;;;;;;;20.95;8.10;;;16.90;99.90;;;;;;5038107;28;20120;-84
2022/05/25 07:26:22;;;;;;;15.65;7.80;;;17.20;99.90;;;;;;5037196;28;20071;-85
2022/05/25 07:28:49;;;;;;;18.30;7.68;;;17.30;99.90;;;;;;5055899;28;20165;-84
2022/05/25 07:31:30;;;;;;;15.55;5.93;;;17.20;99.90;;;;;;5055719;28;20044;-82
2022/05/25 07:34:08;;;;;;;20.90;7.75;;;17.40;99.90;;;;;;5038131;28;20053;-82
2022/05/25 07:36:36;;;;;;;16.52;7.15;;;17.40;99.90;;;;;;5055611;28;20119;-83
2022/05/25 07:39:05;;;;;;;18.30;7.93;;;17.40;99.90;;;;;;5037741;28;20049;-85
2022/05/25 07:41:35;;;;;;;19.13;7.25;;;17.30;99.90;;;;;;5037667;28;20044;-83
2022/05/25 07:44:02;;;;;;;11.10;6.00;;;17.10;99.90;;;;;;5037828;28;20076;-84
2022/05/25 07:46:29;;;;;;;13.52;5.97;;;17.10;99.90;;;;;;5037593;28;20045;-84
2022/05/25 07:48:55;;;;;;;16.33;7.80;;;17.30;99.90;;;;;;5036912;28;20045;-83
2022/05/25 07:51:21;;;;;;;25.30;10.65;;;17.40;99.90;;;;;;5037489;28;20087;-85
2022/05/25 07:53:55;;;;;;;21.45;12.38;;;17.40;99.90;;;;;;5037491;28;20497;-84
2022/05/25 07:56:22;;;;;;;19.08;8.95;;;17.20;99.90;;;;;;5033982;28;20413;-84
2022/05/25 07:58:49;;;;;;;15.20;6.60;;;17.20;99.90;;;;;;5055231;28;20080;-84
2022/05/25 08:01:19;;;;;;;13.20;6.93;;;17.20;99.90;;;;;;5055459;28;20068;-83
2022/05/25 08:06:31;;;;;;;16.38;8.48;;;17.20;99.90;;;;;;5036279;28;20098;-83
2022/05/25 08:08:57;;;;;;;15.02;7.60;;;17.10;99.90;;;;;;5026966;28;20037;-83
2022/05/25 08:11:24;;;;;;;16.02;8.65;;;17.30;99.90;;;;;;5027193;28;20036;-83
2022/05/25 08:13:54;;;;;;;16.35;9.23;;;17.30;99.90;;;;;;5030278;28;20175;-83
2022/05/25 08:16:20;;;;;;;14.57;9.98;;;17.50;99.90;;;;;;5025666;28;20053;-83
2022/05/25 08:18:46;;;;;;;13.65;8.63;;;17.70;99.90;;;;;;5017221;28;20044;-83
2022/05/25 08:21:11;;;;;;;15.00;9.25;;;17.50;99.90;;;;;;5017347;28;20044;-84
2022/05/25 08:23:37;;;;;;;16.65;10.93;;;17.60;99.90;;;;;;5017229;28;20397;-83
2022/05/25 08:26:03;;;;;;;20.58;11.20;;;17.40;99.90;;;;;;5024913;28;20488;-83
2022/05/25 08:28:28;;;;;;;15.10;12.02;;;17.50;99.90;;;;;;5036677;28;20047;-83
2022/05/25 08:30:54;;;;;;;14.38;10.00;;;17.60;99.90;;;;;;5018352;28;20480;-84
2022/05/25 08:33:22;;;;;;;18.05;11.27;;;17.50;99.90;;;;;;5016895;28;20048;-83
2022/05/25 08:35:48;;;;;;;22.92;10.73;;;17.50;99.90;;;;;;5041465;28;20080;-84
2022/05/25 08:38:14;;;;;;;15.98;9.52;;;17.60;99.90;;;;;;5054450;28;20067;-84
2022/05/25 08:40:42;;;;;;;17.63;9.90;;;17.60;99.90;;;;;;5036635;28;20465;-85
2022/05/25 08:43:18;;;;;;;13.00;10.55;;;17.60;99.90;;;;;;5036701;28;20045;-84
2022/05/25 08:45:52;;;;;;;14.75;11.18;;;17.70;99.90;;;;;;5036504;28;20053;-83
2022/05/25 08:48:22;;;;;;;16.75;10.48;;;17.70;99.90;;;;;;5036684;28;20085;-84
2022/05/25 08:50:57;;;;;;;13.02;10.32;;;17.80;99.90;;;;;;5036423;28;20045;-83
2022/05/25 08:53:24;;;;;;;15.35;11.77;;;17.80;99.90;;;;;;5036301;28;20041;-83
2022/05/25 08:55:58;;;;;;;15.95;12.57;;;17.90;99.90;;;;;;5035813;28;20052;-84
2022/05/25 08:58:32;;;;;;;16.70;12.32;;;18.00;99.90;;;;;;5036378;28;20392;-83
2022/05/25 09:01:01;;;;;;;15.25;11.57;;;18.00;99.90;;;;;;5035602;28;20128;-83
2022/05/25 09:03:48;;;;;;;13.98;12.05;;;17.90;99.90;;;;;;5054166;28;20069;-83
2022/05/25 09:06:29;;;;;;;16.20;10.00;;;17.70;99.90;;;;;;5036205;28;20051;-83
2022/05/25 09:09:05;;;;;;;15.90;11.40;;;17.90;99.90;;;;;;5036064;28;20051;-83
2022/05/25 09:11:45;;;;;;;32.22;10.70;;;18.00;99.90;;;;;;5036167;28;20051;-85
2022/05/25 09:14:29;;;;;;;14.27;10.45;;;18.00;99.90;;;;;;5036311;28;20118;-80
2022/05/25 09:16:59;;;;;;;16.60;10.20;;;18.00;99.90;;;;;;5035955;28;20056;-82
2022/05/25 09:19:31;;;;;;;16.58;10.40;;;17.90;99.90;;;;;;5035783;28;20076;-82
2022/05/25 09:22:05;;;;;;;13.75;9.88;;;17.60;99.90;;;;;;5035684;28;20049;-82
2022/05/25 09:24:34;;;;;;;16.77;12.13;;;17.70;99.90;;;;;;5053889;28;20037;-82
2022/05/25 09:27:02;;;;;;;19.58;12.77;;;17.60;99.90;;;;;;5053853;28;20045;-82
2022/05/25 09:29:28;;;;;;;18.33;12.27;;;17.60;99.90;;;;;;5053622;28;20084;-82
2022/05/25 09:32:07;;;;;;;19.52;14.00;;;17.70;99.90;;;;;;5035731;28;20126;-82
2022/05/25 09:35:06;;;;;;;22.38;14.38;;;17.60;99.90;;;;;;5053324;28;20064;-82
2022/05/25 09:37:39;;;;;;;23.00;15.68;;;17.50;99.90;;;;;;5009910;28;20080;-82
2022/05/25 09:40:14;;;;;;;21.05;15.48;;;17.60;99.90;;;;;;5035725;28;20484;-82
2022/05/25 09:42:39;;;;;;;22.05;15.90;;;17.70;99.90;;;;;;5035736;28;20049;-82
2022/05/25 09:45:14;;;;;;;22.80;16.80;;;17.70;99.90;;;;;;5035365;28;20508;-82
2022/05/25 09:47:44;;;;;;;25.30;18.42;;;17.70;99.90;;;;;;5035533;28;20048;-82
2022/05/25 09:50:32;;;;;;;26.10;19.35;;;17.50;99.90;;;;;;5035701;28;20041;-82
2022/05/25 09:53:07;;;;;;;24.90;18.65;;;17.40;99.90;;;;;;5035394;28;20049;-86
2022/05/25 09:55:43;;;;;;;30.00;19.95;;;17.30;99.90;;;;;;5035554;28;20044;-86
2022/05/25 09:58:28;;;;;;;25.20;18.20;;;17.50;99.90;;;;;;5035637;28;20041;-85
2022/05/25 10:01:00;;;;;;;31.10;18.52;;;17.60;99.90;;;;;;5035543;28;20037;-83
2022/05/25 10:03:34;;;;;;;31.27;19.85;;;17.70;99.90;;;;;;5035615;28;20080;-80
2022/05/25 10:06:14;;;;;;;24.98;19.55;;;17.70;99.90;;;;;;5053076;28;20446;-81
2022/05/25 10:08:41;;;;;;;32.47;21.00;;;17.50;99.90;;;;;;5052991;28;20488;-80
2022/05/25 10:11:29;;;;;;;27.33;20.95;;;17.80;99.90;;;;;;5053016;28;20489;-81
2022/05/25 10:13:56;;;;;;;32.97;20.80;;;18.10;99.90;;;;;;5039610;28;20439;-82
2022/05/25 10:16:27;;;;;;;30.52;18.63;;;18.20;99.90;;;;;;5039306;28;20518;-81
2022/05/25 10:18:54;;;;;;;24.13;17.00;;;18.20;99.90;;;;;;5057167;28;20462;-83
2022/05/25 10:21:26;;;;;;;27.20;17.67;;;17.90;99.90;;;;;;5057226;28;20041;-81
2022/05/25 10:23:53;;;;;;;27.40;19.77;;;17.80;99.90;;;;;;5057400;28;20081;-85
2022/05/25 10:26:31;;;;;;;31.10;20.58;;;17.50;99.90;;;;;;5039108;28;20064;-83
2022/05/25 10:29:12;;;;;;;38.95;22.55;;;17.20;99.90;;;;;;5039210;28;20045;-82
2022/05/25 10:37:36;;;;;;;47.22;25.92;;;16.00;99.90;;;;;;5038594;28;20143;-83
2022/05/25 10:40:05;;;;;;;47.50;25.25;;;15.70;99.90;;;;;;5039206;28;20067;-84
2022/05/25 10:42:44;;;;;;;39.45;23.52;;;15.60;99.90;;;;;;5038829;28;20048;-84
2022/05/25 10:45:20;;;;;;;34.35;22.02;;;15.70;99.90;;;;;;5038717;28;20067;-83
2022/05/25 10:48:07;;;;;;;32.45;19.15;;;15.80;99.90;;;;;;5036244;28;20076;-83
2022/05/25 10:50:58;;;;;;;19.63;12.00;;;15.80;99.90;;;;;;5056853;28;20104;-83
2022/05/25 10:57:19;;;;;;;29.50;16.70;;;15.40;99.90;;;;;;5056374;28;20499;-83
2022/05/25 11:00:12;;;;;;;28.90;18.10;;;14.90;99.90;;;;;;5038168;28;20111;-85
2022/05/25 11:03:00;;;;;;;22.90;13.32;;;14.80;99.90;;;;;;5037597;28;20053;-84
2022/05/25 11:06:24;;;;;;;15.30;10.10;;;14.60;99.90;;;;;;5038261;28;20124;-85
2022/05/25 11:09:11;;;;;;;15.35;7.72;;;14.40;99.90;;;;;;4940129;29;20554;-83
2022/05/25 11:11:50;;;;;;;12.35;6.68;;;14.50;99.90;;;;;;4955920;29;20047;-83
2022/05/25 11:14:15;;;;;;;11.77;6.15;;;14.50;99.90;;;;;;5008491;28;20131;-83
2022/05/25 11:16:47;;;;;;;12.43;6.20;;;14.40;99.90;;;;;;5055956;28;20136;-84
2022/05/25 11:19:13;;;;;;;10.57;5.87;;;14.40;99.90;;;;;;5037310;28;20063;-84
2022/05/25 11:22:00;;;;;;;14.10;7.93;;;14.30;99.90;;;;;;5056277;28;20049;-84
2022/05/25 11:24:34;;;;;;;17.98;10.77;;;14.50;99.90;;;;;;5036846;28;20412;-84
2022/05/25 11:27:12;;;;;;;17.92;11.93;;;14.80;99.90;;;;;;5037940;28;20195;-85
2022/05/25 11:30:05;;;;;;;25.92;14.45;;;15.10;99.90;;;;;;5038223;28;20183;-90
2022/05/25 11:32:56;;;;;;;31.77;18.58;;;15.50;99.90;;;;;;5038129;28;20060;-85
2022/05/25 11:35:44;;;;;;;37.13;21.30;;;15.70;99.90;;;;;;5055620;28;20048;-88
2022/05/25 11:38:23;;;;;;;44.45;23.08;;;16.20;99.90;;;;;;5037866;28;20052;-89
2022/05/25 11:41:10;;;;;;;42.90;22.70;;;16.20;99.90;;;;;;5037874;28;20040;-88
2022/05/25 11:44:14;;;;;;;49.50;23.73;;;16.20;99.90;;;;;;5037846;28;20432;-89
2022/05/25 11:46:43;;;;;;;40.67;22.63;;;16.50;99.90;;;;;;4994560;28;20053;-84
2022/05/25 11:49:30;;;;;;;43.95;24.23;;;16.60;99.90;;;;;;5037854;28;20041;-89
2022/05/25 11:52:11;;;;;;;46.38;24.42;;;16.60;99.90;;;;;;5037794;28;20476;-85
2022/05/25 11:54:42;;;;;;;52.05;23.13;;;16.80;99.90;;;;;;5037519;28;20052;-85
2022/05/25 11:57:22;;;;;;;40.08;20.63;;;17.10;99.90;;;;;;5037616;28;20040;-88
2022/05/25 12:00:26;;;;;;;16.25;8.68;;;17.30;99.90;;;;;;5037788;28;20063;-84
2022/05/25 12:03:44;;;;;;;14.02;4.65;;;17.50;99.90;;;;;;5037715;28;20496;-85
2022/05/25 12:06:14;;;;;;;10.27;4.38;;;17.50;99.90;;;;;;4974253;28;20079;-84
2022/05/25 12:09:11;;;;;;;14.70;4.07;;;17.60;99.90;;;;;;5033162;28;20049;-86
2022/05/25 12:11:52;;;;;;;9.88;3.75;;;17.60;99.90;;;;;;5037549;28;20049;-82
2022/05/25 12:14:23;;;;;;;7.93;3.42;;;17.60;99.90;;;;;;5055037;28;20500;-84
2022/05/25 12:16:51;;;;;;;6.75;2.75;;;17.80;99.90;;;;;;5036936;28;20136;-84
2022/05/25 12:19:23;;;;;;;8.23;2.83;;;18.10;99.90;;;;;;5037432;28;20124;-83
2022/05/25 12:22:04;;;;;;;5.78;2.70;;;18.20;99.90;;;;;;5037134;28;20148;-85
2022/05/25 12:24:35;;;;;;;8.20;2.53;;;18.30;99.90;;;;;;5037031;28;20052;-85
2022/05/25 12:27:09;;;;;;;5.88;2.17;;;18.10;99.90;;;;;;5054718;28;20053;-84
2022/05/25 12:29:39;;;;;;;5.75;1.83;;;18.40;99.90;;;;;;5037077;28;20045;-84
2022/05/25 12:32:06;;;;;;;8.52;2.15;;;18.50;99.90;;;;;;5037068;28;20052;-84
2022/05/25 12:34:41;;;;;;;7.97;2.65;;;18.50;99.90;;;;;;5037009;28;20408;-83
2022/05/25 12:37:11;;;;;;;6.63;2.38;;;18.70;99.90;;;;;;5036701;28;20044;-83
2022/05/25 12:39:42;;;;;;;7.45;2.15;;;18.50;99.90;;;;;;5054846;28;20041;-83
2022/05/25 12:42:23;;;;;;;9.40;2.72;;;18.50;99.90;;;;;;5036821;28;20053;-83
2022/05/25 12:50:39;;;;;;;9.02;2.45;;;18.30;99.90;;;;;;5036424;28;20048;-83
2022/05/25 12:53:24;;;;;;;11.95;3.88;;;18.20;99.90;;;;;;5036604;28;20060;-82
2022/05/25 12:56:05;;;;;;;15.77;4.75;;;18.10;99.90;;;;;;5036412;28;20456;-82
2022/05/25 12:58:51;;;;;;;15.05;4.57;;;18.00;99.90;;;;;;5036588;28;20052;-83
2022/05/25 13:01:26;;;;;;;14.07;4.68;;;17.90;99.90;;;;;;5036579;28;20051;-83
2022/05/25 13:03:54;;;;;;;12.57;3.65;;;17.70;99.90;;;;;;5036059;28;20080;-83
2022/05/25 13:06:22;;;;;;;11.00;4.30;;;17.60;99.90;;;;;;5034885;28;20106;-84
2022/05/25 13:08:51;;;;;;;12.15;4.57;;;17.70;99.90;;;;;;5052696;28;20049;-85
2022/05/25 13:11:48;;;;;;;13.93;3.60;;;17.60;99.90;;;;;;5035682;28;20060;-84
2022/05/25 13:14:16;;;;;;;10.85;3.50;;;17.70;99.90;;;;;;5035794;28;20056;-85
2022/05/25 13:16:42;;;;;;;12.20;3.72;;;17.70;99.90;;;;;;5035901;28;20053;-84
2022/05/25 13:19:32;;;;;;;8.82;3.20;;;17.80;99.90;;;;;;5053854;28;20060;-84
2022/05/25 13:22:02;;;;;;;12.80;3.22;;;17.90;99.90;;;;;;5053693;28;20159;-83